Twitch Karma

About TwitchKarma

How TwitchKarma works? 

We taking top100 records from twitch online, calculate different counts and save to our database.

On main page of service we show you those channels wich had the lowest "karma" (reg_user / viwers) points.

Actualy you may check directly any online channel on special page, use search button on the TOP or register and keep your own list of channels wich we will analyse for you.

From time to time twitch APIs have bad working, and from time to time any bad man may throw bots on clear streamer, so, you have to take a look on long periods to come to conclusions.

Follow as on twitter to be in touch about changes.

For Partners

if you need any special statistic, let us know by [email protected], may be we may give it for you directly or as a service

The LOWEST Twitch Karma for last 24 Hours


This is only fun service, be careful this informations from and come to conclusion after several checks only.
You always may help us be stronger and update our servers, thanx for donate.

You may check any channel directly link or user sarch on the top of page.

Lastest tweets

Filters


Update table
| |

Channel Game Lang Numbers Date
Viewers Registered Karma
1 ebaumsworld Marbles on Stream en 2096 24 0,01 2019-08-22 03:02:14
2 futbolcapinvivo21 FIFA 19 es 1734 36 0,02 2019-08-22 04:32:09
3 artificialnext Talk Shows & Podcasts en 8178 195 0,02 2019-08-22 03:30:29
4 usgoweb Go en 2217 110 0,04 2019-08-22 05:01:40
5 themrcupid Fortnite en 5104 307 0,06 2019-08-22 07:00:48
6 atlantaplayerscup Fortnite en 2056 42 0,07 2019-08-22 04:31:53
7 livekiss Music & Performing Arts zh 1725 220 0,13 2019-08-22 04:32:12
8 mcilreavey World of Warcraft en 2829 231 0,14 2019-08-22 04:31:24
9 geekandsundry Tabletop RPGs en 3522 393 0,15 2019-08-22 04:31:07
10 aircool Fortnite en 1918 338 0,18 2019-08-22 06:31:42
11 riotgamesoce League of Legends en 1404 324 0,18 2019-08-22 09:01:59
12 chess Chess en 3517 593 0,19 2019-08-22 19:01:38
13 sundo118 Dota 2 ko 1364 310 0,21 2019-08-22 09:02:02
14 unforgettabletv Dota 2 ru 2050 139 0,21 2019-08-22 06:31:33
15 monstersandexplosions Special Events de 3649 1010 0,27 2019-08-22 19:01:33
16 kaazn Grand Theft Auto V fr 4685 1289 0,37 2019-08-22 06:30:40
17 uccleague Counter-Strike: Global Offensive ru 5177 1982 0,38 2019-08-22 19:01:02
18 beyondthesummit_pt Dota 2 pt 2026 579 0,39 2019-08-22 03:02:18
19 twitchrivals Fortnite en 9946 2754 0,42 2019-08-22 03:00:32
20 drnkie Dead by Daylight en 5854 2421 0,42 2019-08-22 19:30:43
21 uccleague2 Counter-Strike: Global Offensive en 2776 1279 0,43 2019-08-22 19:02:12
22 froggedtv Dota 2 fr 1416 824 0,44 2019-08-22 09:01:57
23 gamescom Special Events en 3192 1751 0,46 2019-08-22 19:01:53
24 highdistortion Fortnite en 8586 2206 0,48 2019-08-22 05:30:33
25 leobas Fortnite es 2250 1903 0,51 2019-08-22 05:01:37
26 dota2ti_pt Dota 2 pt 2555 771 0,53 2019-08-22 04:31:28
27 dota2ti_es Dota 2 es 16469 9308 0,57 2019-08-22 05:30:20
28 bugha Counter-Strike: Global Offensive en 30537 21094 0,58 2019-08-22 03:00:06
29 stansfield League of Legends tr 3194 1660 0,58 2019-08-22 03:01:23
30 cryaotic Simulacra en 1744 1709 0,59 2019-08-22 05:02:06
31 karasmai League of Legends en 5081 1878 0,61 2019-08-22 03:30:43
32 andymilonakis Travel & Outdoors en 8449 2777 0,61 2019-08-22 19:00:43
33 symfuhny Fortnite en 4732 3893 0,63 2019-08-22 03:00:48
34 lightfurylf Dota 2 th 1651 1092 0,65 2019-08-22 06:31:56
35 towelliee World of Warcraft en 4079 2978 0,65 2019-08-22 19:01:22
36 dota2ti Dota 2 en 14214 12193 0,66 2019-08-22 03:00:22
37 dua3362 Overwatch ko 2892 1934 0,66 2019-08-22 20:01:50
38 realkraftyy Apex Legends en 3209 2031 0,66 2019-08-22 19:01:50
39 therealblackoutz Fortnite pt 3119 2545 0,68 2019-08-22 03:01:29
40 jdotb World of Warcraft en 1710 1141 0,68 2019-08-22 04:32:16
41 rekinss fortnite it 2918 2367 0,68 2019-08-22 20:01:49
42 sah_yang Just Chatting ko 2874 1984 0,69 2019-08-22 19:02:09
43 diegosaurs Apex Legends en 1709 1411 0,69 2019-08-22 07:31:56
44 mikasa_th Dota 2 th 1760 1309 0,69 2019-08-22 06:02:24
45 miltontpike1 Grand Theft Auto V en 1529 1467 0,70 2019-08-22 07:02:06
46 dossierchannel Dota 2 th 1373 969 0,70 2019-08-22 09:02:00
47 nickmercs Fortnite en 18869 13863 0,70 2019-08-22 03:00:13
48 ranger Fortnite en 1515 1342 0,72 2019-08-22 06:32:04
49 nanayango3o Just Chatting ko 1708 1325 0,73 2019-08-22 05:02:11
50 painlivestream Grand Theft Auto V de 2658 2024 0,73 2019-08-22 03:01:53
51 arigameplays Fortnite es 2424 1838 0,73 2019-08-22 06:31:22
52 1drakonz Fortnite pt 3025 2464 0,74 2019-08-22 03:01:35
53 destiny Apex Legends en 4712 3477 0,74 2019-08-22 03:00:49
54 nicewigg Apex Legends en 1836 1484 0,74 2019-08-22 04:02:13
55 xewer Fortnite fr 2541 2107 0,74 2019-08-22 19:02:24
56 temporadadejuegos Counter-Strike: Global Offensive es 1776 1307 0,75 2019-08-22 05:02:05
57 natehill Fortnite en 3558 2821 0,75 2019-08-22 20:01:25
58 tfue Fortnite en 44673 32766 0,75 2019-08-22 03:00:05
59 aydan Fortnite en 3155 2618 0,76 2019-08-22 04:01:22
60 hanryang1125 Undermine ko 11741 8775 0,76 2019-08-22 19:00:27
61 solaryfortnite Fortnite fr 9536 7581 0,76 2019-08-22 19:00:41
62 christhewzrd Fortnite en 1388 1034 0,76 2019-08-22 08:32:07
63 goldglove Remnant: From the Ashes en 1688 1294 0,76 2019-08-22 05:32:20
64 alexramigaming Fortnite en 3383 2444 0,77 2019-08-22 03:01:18
65 buzzbean11 Subnautica: Below Zero ko 3613 2740 0,77 2019-08-22 19:01:35
66 sal_gu Dead by Daylight ko 2869 2074 0,77 2019-08-22 19:02:11
67 xos659 Just Chatting ko 1750 1312 0,78 2019-08-22 08:31:54
68 couragejd Minecraft en 10451 8605 0,78 2019-08-22 03:00:30
69 flight23white NBA 2K20 en 3439 2711 0,78 2019-08-22 08:30:55
70 elementlolz League of Legends pt 1483 1239 0,78 2019-08-22 06:02:47
71 lol_ambition League of Legends ko 2037 1659 0,78 2019-08-22 08:31:38
72 rush League of Legends en 4651 3926 0,78 2019-08-22 07:30:40
73 rdulive Hearthstone en 4639 3642 0,78 2019-08-22 19:01:14
74 missclick_tv Dota 2 pt 2817 2283 0,78 2019-08-22 05:31:25
75 themythic_ Fortnite ar 2205 1647 0,79 2019-08-22 19:02:40
76 asmodaitv Hearthstone en 2501 2053 0,79 2019-08-22 05:01:29
77 dota2ti_ru Dota 2 ru 7657 7168 0,79 2019-08-22 03:00:34
78 shiphtur League of Legends en 4350 3664 0,79 2019-08-22 19:01:19
79 stanixediting Art es 1962 1532 0,79 2019-08-22 04:32:01
80 cdewx World of Warcraft en 3763 3299 0,79 2019-08-22 03:01:05
81 nanajam777 Minecraft ko 2839 2228 0,79 2019-08-22 07:31:06
82 pink_sparkles Just Chatting en 1910 1445 0,79 2019-08-22 05:31:56
83 flurry1989 Hearthstone ko 1821 1447 0,79 2019-08-22 06:02:17
84 yd0821 Minecraft ko 5746 4696 0,79 2019-08-22 19:00:55
85 72hrs Fortnite en 2929 2236 0,79 2019-08-22 03:01:42
86 jltomy Grand Theft Auto V fr 14840 11622 0,79 2019-08-22 03:00:18
87 teepee Call of Duty: Black Ops 4 en 2333 1907 0,79 2019-08-22 19:02:35
88 wavyjacob Fortnite en 1455 1191 0,79 2019-08-22 09:01:54
89 handongsuk League of Legends ko 17068 13701 0,79 2019-08-22 19:00:19
90 rxnexus Dota 2 ru 2345 1848 0,79 2019-08-22 19:32:13
91 forhonorgame For Honor en 4188 3105 0,79 2019-08-22 19:31:14
92 mrfreshasian Fortnite en 4581 3608 0,79 2019-08-22 08:30:45
93 timthetatman Counter-Strike: Global Offensive en 16360 12247 0,79 2019-08-22 03:00:17
94 akaadian League of Legends en 5757 4725 0,79 2019-08-22 08:30:30
95 juanjuegajuegos Minecraft es 1841 1640 0,79 2019-08-22 05:32:01
96 spygea Apex Legends ja 5674 4509 0,79 2019-08-22 19:00:57
97 teamsp00ky Samurai Shodown en 1713 1374 0,80 2019-08-22 05:02:10
98 daltoosh Apex Legends en 1484 1080 0,80 2019-08-22 05:32:30
99 jinsooo0 Teamfight Tactics ko 2431 2005 0,80 2019-08-22 07:31:25
100 teeqzy_ Fortnite fr 3752 2890 0,80 2019-08-22 19:01:29